»·PEaware :: N172TT KMHV-KBUR

N172TT :: KMHV-KBUR

FLIGHT INFORMATION

Flight Status: Arrived
Operator: Privately registered:
United States
More flights under this callsign
Pilot: Thomas T. (19955)
Aircraft: CESSNA 172 SKYHAWK
(C172)
More flights by this aircraft type
Origin: KMHV Mojave
United States
Destination: KBUR Bob Hope-Burbank
United States
More flights between these airports :: More routes between these airports
Route: KMHV LHS KBUR
File this flight plan on PilotEdge
Remarks: TRAING FLIGHT
Altitude:
(Current/Filed)
4,500ft
Speed:
(Current/Filed)
118kts
Departed: 02-Oct-18 11:42 AM
Arrived: 02-Oct-18 12:23 PM
Distance/Time
Traveled:
53nm/0:41
Distance/Time
To Go:
Arrived

Flight Plot

Page will automatically refresh every two minutes.

Flight plan parsing failed; only flown route is shown


Map Options




Map Legend


Flown Route
Filed Route
Departure Airport
Arrival Airport
Navaid (VOR, NDB)
Fix

Horizontal Profiles

Position Reports

Time Latitude Longitude Heading Altitude Ground
Speed
02-Oct-18 11:21 35.057283 -118.164724 69 2760ft 0kts
02-Oct-18 11:22 35.057283 -118.164724 69 2760ft 0kts
02-Oct-18 11:23 35.057283 -118.164724 69 2760ft 0kts
02-Oct-18 11:24 35.057283 -118.164724 69 2760ft 0kts
02-Oct-18 11:25 35.057283 -118.164724 69 2760ft 0kts
02-Oct-18 11:26 35.057283 -118.164724 69 2760ft 0kts
02-Oct-18 11:27 35.057283 -118.164724 69 2760ft 0kts
02-Oct-18 11:28 35.057283 -118.164724 69 2760ft 0kts
02-Oct-18 11:29 35.057286 -118.164712 70 2760ft 0kts
02-Oct-18 11:30 35.057286 -118.164712 73 2760ft 0kts
02-Oct-18 11:31 35.057452 -118.163987 74 2760ft 11kts
02-Oct-18 11:32 35.057595 -118.158337 90 2760ft 24kts
02-Oct-18 11:33 35.057595 -118.150010 92 2760ft 21kts
02-Oct-18 11:34 35.057573 -118.143683 88 2760ft 15kts
02-Oct-18 11:35 35.057898 -118.142639 358 2760ft 0kts
02-Oct-18 11:36 35.057898 -118.142639 358 2760ft 0kts
02-Oct-18 11:37 35.057898 -118.142639 358 2760ft 0kts
02-Oct-18 11:38 35.057898 -118.142639 358 2760ft 0kts
02-Oct-18 11:39 35.057899 -118.142639 358 2760ft 0kts
02-Oct-18 11:40 35.057898 -118.142639 358 2760ft 0kts
02-Oct-18 11:41 35.058284 -118.142644 358 2760ft 2kts
02-Oct-18 11:42 35.058286 -118.142644 359 2760ft 0kts
02-Oct-18 11:43 35.059149 -118.143160 267 2760ft 0kts
02-Oct-18 11:44 35.059583 -118.160022 251 3170ft 62kts
02-Oct-18 11:45 35.059872 -118.181026 247 3854ft 62kts
02-Oct-18 11:46 35.044952 -118.190300 218 4279ft 57kts
02-Oct-18 11:47 35.027553 -118.207113 202 4674ft 78kts
02-Oct-18 11:48 35.006905 -118.217484 211 4769ft 81kts
02-Oct-18 11:49 34.986830 -118.232912 213 4834ft 91kts
02-Oct-18 11:50 34.964116 -118.249133 212 4703ft 92kts
02-Oct-18 11:51 34.942240 -118.264460 219 4595ft 96kts
02-Oct-18 11:52 34.923385 -118.286213 222 4544ft 91kts
02-Oct-18 11:53 34.907705 -118.310120 224 4524ft 91kts
02-Oct-18 11:54 34.890547 -118.330273 218 4524ft 90kts
02-Oct-18 11:55 34.871693 -118.351007 221 4489ft 91kts
02-Oct-18 11:56 34.855627 -118.373833 227 4513ft 91kts
02-Oct-18 11:57 34.839357 -118.396320 215 4562ft 84kts
02-Oct-18 11:58 34.821245 -118.415853 216 4472ft 96kts
02-Oct-18 11:59 34.802064 -118.435758 218 4479ft 92kts
02-Oct-18 12:00 34.782474 -118.457929 229 4253ft 102kts
02-Oct-18 12:01 34.767635 -118.480705 233 4473ft 85kts
02-Oct-18 12:02 34.749917 -118.496967 210 4608ft 87kts
02-Oct-18 12:03 34.727967 -118.506715 180 4860ft 89kts
02-Oct-18 12:04 34.703444 -118.508174 191 5461ft 92kts
02-Oct-18 12:05 34.674889 -118.514385 193 5592ft 111kts
02-Oct-18 12:06 34.643885 -118.519432 191 5540ft 105kts
02-Oct-18 12:07 34.615789 -118.528033 203 5495ft 98kts
02-Oct-18 12:08 34.590226 -118.539793 182 5360ft 103kts
02-Oct-18 12:09 34.562146 -118.538362 172 5269ft 102kts
02-Oct-18 12:10 34.535010 -118.530838 159 5221ft 100kts
02-Oct-18 12:11 34.507604 -118.522921 166 5137ft 102kts
02-Oct-18 12:12 34.480017 -118.516091 161 5070ft 102kts
02-Oct-18 12:13 34.452749 -118.507050 165 5072ft 104kts
02-Oct-18 12:14 34.423522 -118.501497 172 5092ft 108kts
02-Oct-18 12:15 34.395579 -118.492345 162 5066ft 104kts
02-Oct-18 12:16 34.370253 -118.482166 156 4596ft 97kts
02-Oct-18 12:17 34.343670 -118.468480 148 4024ft 106kts
02-Oct-18 12:18 34.329395 -118.437929 133 3383ft 101kts
02-Oct-18 12:19 34.307499 -118.416152 144 2770ft 102kts
02-Oct-18 12:20 34.283834 -118.393938 147 2691ft 112kts
02-Oct-18 12:21 34.256807 -118.375138 160 2693ft 108kts
02-Oct-18 12:22 34.229965 -118.387025 186 2399ft 104kts
02-Oct-18 12:23 34.209672 -118.390942 181 1736ft 67kts
02-Oct-18 12:24 34.198167 -118.378333 94 995ft 62kts
02-Oct-18 12:25 34.197820 -118.362609 89 734ft 25kts
02-Oct-18 12:26 34.199527 -118.360881 314 734ft 10kts
02-Oct-18 12:27 34.199554 -118.361063 177 734ft 0kts
02-Oct-18 12:28 34.199554 -118.361063 177 734ft 0kts
02-Oct-18 12:29 34.199554 -118.361063 177 734ft 0kts

Navigation Log

Ident Type
Flight plan parsing failed, navigation log unavailable